sensor_id;sensor_type;location;lat;lon;timestamp;pressure;altitude;pressure_sealevel;temperature;humidity
3434;BME280;1730;41.932;25.548;2024-02-23T00:00:50;99797.91;;;10.03;100.00
3434;BME280;1730;41.932;25.548;2024-02-23T00:03:15;99779.25;;;10.21;100.00
3434;BME280;1730;41.932;25.548;2024-02-23T00:05:41;99761.94;;;10.23;100.00
3434;BME280;1730;41.932;25.548;2024-02-23T00:08:09;99481.84;;;8.39;100.00
3434;BME280;1730;41.932;25.548;2024-02-23T00:10:35;99779.94;;;10.23;100.00
3434;BME280;1730;41.932;25.548;2024-02-23T00:13:00;99737.00;;;10.31;100.00
3434;BME280;1730;41.932;25.548;2024-02-23T00:15:26;99381.31;;;8.32;100.00
3434;BME280;1730;41.932;25.548;2024-02-23T00:17:52;99188.50;;;6.89;100.00
3434;BME280;1730;41.932;25.548;2024-02-23T00:20:17;99702.50;;;10.25;100.00
3434;BME280;1730;41.932;25.548;2024-02-23T00:22:42;99495.56;;;8.76;100.00
3434;BME280;1730;41.932;25.548;2024-02-23T00:25:08;99729.28;;;10.07;100.00
3434;BME280;1730;41.932;25.548;2024-02-23T00:27:34;99455.56;;;8.43;100.00
3434;BME280;1730;41.932;25.548;2024-02-23T00:29:59;99735.81;;;10.05;100.00
3434;BME280;1730;41.932;25.548;2024-02-23T00:32:25;99732.22;;;9.75;100.00
3434;BME280;1730;41.932;25.548;2024-02-23T00:34:51;99621.94;;;8.95;100.00
3434;BME280;1730;41.932;25.548;2024-02-23T00:37:16;99590.41;;;8.57;100.00
3434;BME280;1730;41.932;25.548;2024-02-23T00:39:42;99633.81;;;8.53;100.00
3434;BME280;1730;41.932;25.548;2024-02-23T00:42:07;99504.69;;;7.73;100.00
3434;BME280;1730;41.932;25.548;2024-02-23T00:44:33;99649.09;;;8.52;100.00
3434;BME280;1730;41.932;25.548;2024-02-23T00:46:58;99814.72;;;9.16;100.00
3434;BME280;1730;41.932;25.548;2024-02-23T00:49:29;99835.59;;;9.23;100.00
3434;BME280;1730;41.932;25.548;2024-02-23T00:51:55;99903.97;;;9.21;100.00
3434;BME280;1730;41.932;25.548;2024-02-23T00:54:20;99428.63;;;6.48;100.00
3434;BME280;1730;41.932;25.548;2024-02-23T00:56:46;99601.09;;;7.65;100.00
3434;BME280;1730;41.932;25.548;2024-02-23T00:59:12;99889.53;;;9.01;100.00
3434;BME280;1730;41.932;25.548;2024-02-23T01:01:37;99645.34;;;7.50;100.00
3434;BME280;1730;41.932;25.548;2024-02-23T01:04:03;99941.06;;;8.85;100.00
3434;BME280;1730;41.932;25.548;2024-02-23T01:06:29;99351.94;;;5.82;100.00
3434;BME280;1730;41.932;25.548;2024-02-23T01:08:54;99893.84;;;8.92;100.00
3434;BME280;1730;41.932;25.548;2024-02-23T01:11:20;99737.03;;;7.98;100.00
3434;BME280;1730;41.932;25.548;2024-02-23T01:13:45;99411.03;;;6.12;100.00
3434;BME280;1730;41.932;25.548;2024-02-23T01:16:11;99899.09;;;8.94;100.00
3434;BME280;1730;41.932;25.548;2024-02-23T01:18:36;99385.88;;;5.81;100.00
3434;BME280;1730;41.932;25.548;2024-02-23T01:21:02;99910.91;;;8.82;100.00
3434;BME280;1730;41.932;25.548;2024-02-23T01:23:28;99785.53;;;7.85;100.00
3434;BME280;1730;41.932;25.548;2024-02-23T01:25:53;99783.28;;;8.01;100.00
3434;BME280;1730;41.932;25.548;2024-02-23T01:28:19;99935.97;;;8.71;100.00
3434;BME280;1730;41.932;25.548;2024-02-23T01:30:44;99439.91;;;5.86;100.00
3434;BME280;1730;41.932;25.548;2024-02-23T01:33:10;99953.94;;;8.71;100.00
3434;BME280;1730;41.932;25.548;2024-02-23T01:35:35;99941.56;;;8.79;100.00
3434;BME280;1730;41.932;25.548;2024-02-23T01:38:02;99415.78;;;5.64;100.00
3434;BME280;1730;41.932;25.548;2024-02-23T01:40:28;99793.09;;;7.80;100.00
3434;BME280;1730;41.932;25.548;2024-02-23T01:43:06;99932.63;;;8.47;100.00
3434;BME280;1730;41.932;25.548;2024-02-23T01:45:33;99987.59;;;8.54;100.00
3434;BME280;1730;41.932;25.548;2024-02-23T01:47:59;99947.31;;;8.32;100.00
3434;BME280;1730;41.932;25.548;2024-02-23T01:50:26;99966.72;;;8.46;100.00
3434;BME280;1730;41.932;25.548;2024-02-23T01:52:53;99726.09;;;7.02;100.00
3434;BME280;1730;41.932;25.548;2024-02-23T01:55:20;99985.13;;;8.62;100.00
3434;BME280;1730;41.932;25.548;2024-02-23T01:57:47;100014.66;;;8.73;100.00
3434;BME280;1730;41.932;25.548;2024-02-23T02:00:17;99838.34;;;7.85;100.00
3434;BME280;1730;41.932;25.548;2024-02-23T02:02:44;99945.56;;;8.64;100.00
3434;BME280;1730;41.932;25.548;2024-02-23T02:05:11;99934.22;;;8.49;100.00
3434;BME280;1730;41.932;25.548;2024-02-23T02:07:37;99942.00;;;8.52;100.00
3434;BME280;1730;41.932;25.548;2024-02-23T02:10:05;99941.53;;;8.47;100.00
3434;BME280;1730;41.932;25.548;2024-02-23T02:12:33;99804.09;;;7.66;100.00
3434;BME280;1730;41.932;25.548;2024-02-23T02:14:58;99651.41;;;6.64;100.00
3434;BME280;1730;41.932;25.548;2024-02-23T02:17:27;99892.28;;;7.82;100.00
3434;BME280;1730;41.932;25.548;2024-02-23T02:19:53;99962.19;;;8.47;100.00
3434;BME280;1730;41.932;25.548;2024-02-23T02:22:18;99931.31;;;8.30;100.00
3434;BME280;1730;41.932;25.548;2024-02-23T02:24:44;100000.09;;;8.33;100.00
3434;BME280;1730;41.932;25.548;2024-02-23T02:27:12;99947.91;;;8.35;100.00
3434;BME280;1730;41.932;25.548;2024-02-23T02:29:38;99948.78;;;8.36;100.00
3434;BME280;1730;41.932;25.548;2024-02-23T02:32:04;99965.50;;;8.28;100.00
3434;BME280;1730;41.932;25.548;2024-02-23T02:34:29;99418.50;;;5.07;100.00
3434;BME280;1730;41.932;25.548;2024-02-23T02:36:55;99958.28;;;7.95;100.00
3434;BME280;1730;41.932;25.548;2024-02-23T02:39:21;99950.59;;;8.13;100.00
3434;BME280;1730;41.932;25.548;2024-02-23T02:41:48;99961.84;;;8.07;100.00
3434;BME280;1730;41.932;25.548;2024-02-23T02:44:14;99809.56;;;7.20;100.00
3434;BME280;1730;41.932;25.548;2024-02-23T02:46:40;99934.13;;;7.73;100.00
3434;BME280;1730;41.932;25.548;2024-02-23T02:49:06;99963.16;;;7.68;100.00
3434;BME280;1730;41.932;25.548;2024-02-23T02:51:31;99698.75;;;5.96;100.00
3434;BME280;1730;41.932;25.548;2024-02-23T02:53:57;99846.59;;;6.93;100.00
3434;BME280;1730;41.932;25.548;2024-02-23T02:56:23;99726.31;;;6.20;100.00
3434;BME280;1730;41.932;25.548;2024-02-23T02:58:48;99824.63;;;6.76;100.00
3434;BME280;1730;41.932;25.548;2024-02-23T03:01:14;99518.63;;;4.90;100.00
3434;BME280;1730;41.932;25.548;2024-02-23T03:03:39;99495.28;;;4.81;100.00
3434;BME280;1730;41.932;25.548;2024-02-23T03:06:05;99464.12;;;4.69;100.00
3434;BME280;1730;41.932;25.548;2024-02-23T03:08:31;99830.75;;;6.90;100.00
3434;BME280;1730;41.932;25.548;2024-02-23T03:10:57;99972.56;;;7.62;100.00
3434;BME280;1730;41.932;25.548;2024-02-23T03:13:22;99971.69;;;7.73;100.00
3434;BME280;1730;41.932;25.548;2024-02-23T03:15:48;99914.81;;;7.23;100.00
3434;BME280;1730;41.932;25.548;2024-02-23T03:18:13;99973.72;;;7.47;100.00
3434;BME280;1730;41.932;25.548;2024-02-23T03:20:41;99989.84;;;7.47;100.00
3434;BME280;1730;41.932;25.548;2024-02-23T03:23:07;100017.97;;;7.42;100.00
3434;BME280;1730;41.932;25.548;2024-02-23T03:25:32;100009.13;;;7.52;100.00
3434;BME280;1730;41.932;25.548;2024-02-23T03:27:58;100021.62;;;7.76;100.00
3434;BME280;1730;41.932;25.548;2024-02-23T03:30:23;99705.34;;;6.03;100.00
3434;BME280;1730;41.932;25.548;2024-02-23T03:32:49;99760.69;;;6.26;100.00
3434;BME280;1730;41.932;25.548;2024-02-23T03:35:15;99942.16;;;7.40;100.00
3434;BME280;1730;41.932;25.548;2024-02-23T03:37:40;99943.09;;;7.39;100.00
3434;BME280;1730;41.932;25.548;2024-02-23T03:40:06;99981.28;;;7.42;100.00
3434;BME280;1730;41.932;25.548;2024-02-23T03:42:32;99821.75;;;6.56;100.00
3434;BME280;1730;41.932;25.548;2024-02-23T03:44:58;99958.13;;;7.41;100.00
3434;BME280;1730;41.932;25.548;2024-02-23T03:47:23;99975.44;;;7.48;100.00
3434;BME280;1730;41.932;25.548;2024-02-23T03:49:49;99901.00;;;7.06;100.00
3434;BME280;1730;41.932;25.548;2024-02-23T03:52:14;99556.50;;;5.08;100.00
3434;BME280;1730;41.932;25.548;2024-02-23T03:54:41;99524.47;;;4.95;100.00
3434;BME280;1730;41.932;25.548;2024-02-23T03:57:06;99364.06;;;3.91;100.00
3434;BME280;1730;41.932;25.548;2024-02-23T03:59:36;99830.94;;;6.64;100.00
3434;BME280;1730;41.932;25.548;2024-02-23T04:02:02;99923.31;;;7.06;100.00
3434;BME280;1730;41.932;25.548;2024-02-23T04:04:27;99926.09;;;7.05;100.00
3434;BME280;1730;41.932;25.548;2024-02-23T04:06:53;99801.34;;;5.83;100.00
3434;BME280;1730;41.932;25.548;2024-02-23T04:09:18;99748.03;;;5.57;100.00
3434;BME280;1730;41.932;25.548;2024-02-23T04:11:47;99636.69;;;4.95;100.00
3434;BME280;1730;41.932;25.548;2024-02-23T04:14:13;99962.87;;;6.55;100.00
3434;BME280;1730;41.932;25.548;2024-02-23T04:16:39;99953.81;;;6.45;100.00
3434;BME280;1730;41.932;25.548;2024-02-23T04:19:04;99919.66;;;6.12;100.00
3434;BME280;1730;41.932;25.548;2024-02-23T04:21:30;99412.34;;;2.99;100.00
3434;BME280;1730;41.932;25.548;2024-02-23T04:23:55;99686.28;;;4.74;100.00
3434;BME280;1730;41.932;25.548;2024-02-23T04:26:21;99431.75;;;3.14;100.00
3434;BME280;1730;41.932;25.548;2024-02-23T04:28:49;99958.41;;;6.19;100.00
3434;BME280;1730;41.932;25.548;2024-02-23T04:31:14;99974.56;;;6.30;100.00
3434;BME280;1730;41.932;25.548;2024-02-23T04:33:40;99182.19;;;1.50;100.00
3434;BME280;1730;41.932;25.548;2024-02-23T04:36:06;99641.81;;;4.37;100.00
3434;BME280;1730;41.932;25.548;2024-02-23T04:38:35;99429.91;;;2.89;100.00
3434;BME280;1730;41.932;25.548;2024-02-23T04:41:03;99964.59;;;6.20;100.00
3434;BME280;1730;41.932;25.548;2024-02-23T04:43:32;99362.91;;;2.31;100.00
3434;BME280;1730;41.932;25.548;2024-02-23T04:45:58;99821.69;;;4.86;100.00
3434;BME280;1730;41.932;25.548;2024-02-23T04:48:23;100003.37;;;5.51;100.00
3434;BME280;1730;41.932;25.548;2024-02-23T04:50:49;99999.13;;;5.61;100.00
3434;BME280;1730;41.932;25.548;2024-02-23T04:53:15;100021.00;;;5.41;100.00
3434;BME280;1730;41.932;25.548;2024-02-23T04:55:42;99715.50;;;3.60;100.00
3434;BME280;1730;41.932;25.548;2024-02-23T04:58:10;100074.44;;;5.80;100.00
3434;BME280;1730;41.932;25.548;2024-02-23T05:00:37;100076.28;;;5.80;100.00
3434;BME280;1730;41.932;25.548;2024-02-23T05:03:03;100075.97;;;5.97;100.00
3434;BME280;1730;41.932;25.548;2024-02-23T05:05:32;99778.41;;;3.77;100.00
3434;BME280;1730;41.932;25.548;2024-02-23T05:07:59;100051.31;;;5.54;100.00
3434;BME280;1730;41.932;25.548;2024-02-23T05:10:25;100063.38;;;5.34;100.00
3434;BME280;1730;41.932;25.548;2024-02-23T05:12:50;99933.91;;;4.33;100.00
3434;BME280;1730;41.932;25.548;2024-02-23T05:15:16;100111.19;;;5.12;100.00
3434;BME280;1730;41.932;25.548;2024-02-23T05:17:42;100137.28;;;5.09;100.00
3434;BME280;1730;41.932;25.548;2024-02-23T05:20:08;100137.81;;;5.14;100.00
3434;BME280;1730;41.932;25.548;2024-02-23T05:22:39;100162.69;;;5.28;100.00
3434;BME280;1730;41.932;25.548;2024-02-23T05:25:05;100164.62;;;5.26;100.00
3434;BME280;1730;41.932;25.548;2024-02-23T05:27:31;100173.16;;;5.31;100.00
3434;BME280;1730;41.932;25.548;2024-02-23T05:29:57;100170.44;;;5.19;100.00
3434;BME280;1730;41.932;25.548;2024-02-23T05:32:22;99644.69;;;2.05;100.00
3434;BME280;1730;41.932;25.548;2024-02-23T05:34:50;100180.97;;;5.22;100.00
3434;BME280;1730;41.932;25.548;2024-02-23T05:37:18;99484.47;;;0.71;100.00
3434;BME280;1730;41.932;25.548;2024-02-23T05:39:45;100215.84;;;5.47;100.00
3434;BME280;1730;41.932;25.548;2024-02-23T05:42:12;100213.09;;;5.34;100.00
3434;BME280;1730;41.932;25.548;2024-02-23T05:44:38;100201.69;;;5.45;100.00
3434;BME280;1730;41.932;25.548;2024-02-23T05:47:05;99841.87;;;3.44;100.00
3434;BME280;1730;41.932;25.548;2024-02-23T05:49:52;100018.50;;;4.59;100.00
3434;BME280;1730;41.932;25.548;2024-02-23T05:52:18;99720.41;;;2.99;100.00
3434;BME280;1730;41.932;25.548;2024-02-23T05:54:43;99835.72;;;3.84;100.00
3434;BME280;1730;41.932;25.548;2024-02-23T05:57:09;100173.72;;;5.90;100.00
3434;BME280;1730;41.932;25.548;2024-02-23T05:59:35;99963.00;;;5.04;100.00
3434;BME280;1730;41.932;25.548;2024-02-23T06:02:00;100149.47;;;6.44;100.00
3434;BME280;1730;41.932;25.548;2024-02-23T06:04:26;99354.88;;;1.91;100.00
3434;BME280;1730;41.932;25.548;2024-02-23T06:06:52;100086.69;;;6.35;100.00
3434;BME280;1730;41.932;25.548;2024-02-23T06:09:17;99760.09;;;4.37;100.00
3434;BME280;1730;41.932;25.548;2024-02-23T06:11:44;99868.28;;;5.20;100.00
3434;BME280;1730;41.932;25.548;2024-02-23T06:14:10;100089.31;;;6.73;100.00
3434;BME280;1730;41.932;25.548;2024-02-23T06:16:36;99870.91;;;5.71;100.00
3434;BME280;1730;41.932;25.548;2024-02-23T06:19:02;99745.56;;;5.17;100.00
3434;BME280;1730;41.932;25.548;2024-02-23T06:21:29;100069.03;;;7.29;100.00
3434;BME280;1730;41.932;25.548;2024-02-23T06:23:55;99879.50;;;6.60;100.00
3434;BME280;1730;41.932;25.548;2024-02-23T06:26:21;99960.09;;;6.80;100.00
3434;BME280;1730;41.932;25.548;2024-02-23T06:28:46;99805.59;;;5.86;100.00
3434;BME280;1730;41.932;25.548;2024-02-23T06:31:12;99869.59;;;6.49;100.00
3434;BME280;1730;41.932;25.548;2024-02-23T06:33:41;99881.94;;;6.63;100.00
3434;BME280;1730;41.932;25.548;2024-02-23T06:36:08;100074.44;;;7.40;100.00
3434;BME280;1730;41.932;25.548;2024-02-23T06:38:34;100020.16;;;7.83;100.00
3434;BME280;1730;41.932;25.548;2024-02-23T06:41:25;100043.38;;;8.06;100.00
3434;BME280;1730;41.932;25.548;2024-02-23T06:43:57;99387.66;;;4.21;100.00
3434;BME280;1730;41.932;25.548;2024-02-23T06:46:29;100022.03;;;8.27;100.00
3434;BME280;1730;41.932;25.548;2024-02-23T06:48:59;99944.59;;;8.43;100.00
3434;BME280;1730;41.932;25.548;2024-02-23T06:51:26;99771.16;;;7.64;100.00
3434;BME280;1730;41.932;25.548;2024-02-23T06:53:54;99800.84;;;8.05;100.00
3434;BME280;1730;41.932;25.548;2024-02-23T06:56:28;99698.47;;;7.67;100.00
3434;BME280;1730;41.932;25.548;2024-02-23T06:58:53;99867.34;;;8.88;100.00
3434;BME280;1730;41.932;25.548;2024-02-23T07:01:20;99644.09;;;7.54;100.00
3434;BME280;1730;41.932;25.548;2024-02-23T07:03:46;99682.09;;;8.02;100.00
3434;BME280;1730;41.932;25.548;2024-02-23T07:06:12;99835.47;;;9.04;100.00
3434;BME280;1730;41.932;25.548;2024-02-23T07:08:38;99680.56;;;8.09;100.00
3434;BME280;1730;41.932;25.548;2024-02-23T07:11:03;99846.69;;;9.60;100.00
3434;BME280;1730;41.932;25.548;2024-02-23T07:13:29;99770.41;;;9.50;100.00
3434;BME280;1730;41.932;25.548;2024-02-23T07:15:55;99786.91;;;9.76;100.00
3434;BME280;1730;41.932;25.548;2024-02-23T07:18:21;99581.78;;;9.13;100.00
3434;BME280;1730;41.932;25.548;2024-02-23T07:20:47;99686.19;;;10.07;100.00
3434;BME280;1730;41.932;25.548;2024-02-23T07:23:13;99587.09;;;9.53;100.00
3434;BME280;1730;41.932;25.548;2024-02-23T07:25:39;99645.78;;;10.26;100.00
3434;BME280;1730;41.932;25.548;2024-02-23T07:28:04;99378.94;;;8.87;100.00
3434;BME280;1730;41.932;25.548;2024-02-23T07:30:30;99438.84;;;9.08;100.00
3434;BME280;1730;41.932;25.548;2024-02-23T07:32:55;99531.16;;;10.22;100.00
3434;BME280;1730;41.932;25.548;2024-02-23T07:35:21;99583.34;;;10.68;100.00
3434;BME280;1730;41.932;25.548;2024-02-23T07:37:46;99307.66;;;9.39;100.00
3434;BME280;1730;41.932;25.548;2024-02-23T07:40:12;99045.94;;;7.72;100.00
3434;BME280;1730;41.932;25.548;2024-02-23T07:42:38;99529.88;;;11.08;100.00
3434;BME280;1730;41.932;25.548;2024-02-23T07:45:04;99457.94;;;10.99;100.00
3434;BME280;1730;41.932;25.548;2024-02-23T07:47:53;99434.91;;;10.87;100.00
3434;BME280;1730;41.932;25.548;2024-02-23T07:50:29;98743.87;;;6.49;100.00
3434;BME280;1730;41.932;25.548;2024-02-23T07:52:54;99444.84;;;10.87;100.00
3434;BME280;1730;41.932;25.548;2024-02-23T07:55:20;99432.47;;;10.49;100.00
3434;BME280;1730;41.932;25.548;2024-02-23T07:57:47;99452.59;;;10.72;100.00
3434;BME280;1730;41.932;25.548;2024-02-23T08:00:13;99411.12;;;11.26;100.00
3434;BME280;1730;41.932;25.548;2024-02-23T08:02:39;99377.88;;;11.00;100.00
3434;BME280;1730;41.932;25.548;2024-02-23T08:05:06;99370.81;;;11.07;100.00
3434;BME280;1730;41.932;25.548;2024-02-23T08:07:32;99088.22;;;9.80;100.00
3434;BME280;1730;41.932;25.548;2024-02-23T08:09:57;99344.69;;;11.59;100.00
3434;BME280;1730;41.932;25.548;2024-02-23T08:12:23;99328.81;;;11.56;100.00
3434;BME280;1730;41.932;25.548;2024-02-23T08:14:48;99350.19;;;12.01;100.00
3434;BME280;1730;41.932;25.548;2024-02-23T08:17:18;98857.16;;;8.80;100.00
3434;BME280;1730;41.932;25.548;2024-02-23T08:19:44;99284.81;;;11.04;100.00
3434;BME280;1730;41.932;25.548;2024-02-23T08:22:09;99347.56;;;11.57;100.00
3434;BME280;1730;41.932;25.548;2024-02-23T08:24:35;99345.50;;;12.11;100.00
3434;BME280;1730;41.932;25.548;2024-02-23T08:27:01;99195.94;;;11.36;100.00
3434;BME280;1730;41.932;25.548;2024-02-23T08:29:28;99318.50;;;12.27;100.00
3434;BME280;1730;41.932;25.548;2024-02-23T08:31:53;99273.03;;;12.14;100.00
3434;BME280;1730;41.932;25.548;2024-02-23T08:34:19;99275.25;;;12.27;100.00
3434;BME280;1730;41.932;25.548;2024-02-23T08:36:44;99262.09;;;12.40;100.00
3434;BME280;1730;41.932;25.548;2024-02-23T08:39:10;99257.69;;;12.47;100.00
3434;BME280;1730;41.932;25.548;2024-02-23T08:41:36;98923.75;;;10.83;100.00
3434;BME280;1730;41.932;25.548;2024-02-23T08:44:01;99249.75;;;12.86;100.00
3434;BME280;1730;41.932;25.548;2024-02-23T08:46:27;99231.44;;;13.04;100.00
3434;BME280;1730;41.932;25.548;2024-02-23T08:48:52;99191.84;;;13.03;100.00
3434;BME280;1730;41.932;25.548;2024-02-23T08:51:18;99056.91;;;12.53;100.00
3434;BME280;1730;41.932;25.548;2024-02-23T08:53:43;99171.31;;;13.41;100.00
3434;BME280;1730;41.932;25.548;2024-02-23T08:56:09;99096.25;;;12.64;100.00
3434;BME280;1730;41.932;25.548;2024-02-23T08:58:34;98772.66;;;11.15;100.00
3434;BME280;1730;41.932;25.548;2024-02-23T09:01:00;99035.66;;;12.81;100.00
3434;BME280;1730;41.932;25.548;2024-02-23T09:03:26;98869.06;;;11.86;100.00
3434;BME280;1730;41.932;25.548;2024-02-23T09:05:51;98990.53;;;12.35;100.00
3434;BME280;1730;41.932;25.548;2024-02-23T09:08:17;98998.47;;;12.36;100.00
3434;BME280;1730;41.932;25.548;2024-02-23T09:10:48;99153.97;;;13.03;100.00
3434;BME280;1730;41.932;25.548;2024-02-23T09:13:18;99157.66;;;13.58;100.00
3434;BME280;1730;41.932;25.548;2024-02-23T09:15:43;99159.41;;;14.04;100.00
3434;BME280;1730;41.932;25.548;2024-02-23T09:18:09;99115.16;;;14.26;100.00
3434;BME280;1730;41.932;25.548;2024-02-23T09:20:36;99001.87;;;13.16;100.00
3434;BME280;1730;41.932;25.548;2024-02-23T09:23:03;98694.44;;;11.54;100.00
3434;BME280;1730;41.932;25.548;2024-02-23T09:25:28;98983.12;;;14.12;100.00
3434;BME280;1730;41.932;25.548;2024-02-23T09:27:58;98971.87;;;14.00;100.00
3434;BME280;1730;41.932;25.548;2024-02-23T09:30:24;99111.94;;;14.08;100.00
3434;BME280;1730;41.932;25.548;2024-02-23T09:32:50;98673.94;;;11.99;100.00
3434;BME280;1730;41.932;25.548;2024-02-23T09:35:15;99078.50;;;14.68;100.00
3434;BME280;1730;41.932;25.548;2024-02-23T09:37:41;99088.16;;;14.85;100.00
3434;BME280;1730;41.932;25.548;2024-02-23T09:40:07;98927.34;;;13.80;100.00
3434;BME280;1730;41.932;25.548;2024-02-23T09:42:33;98903.84;;;14.75;100.00
3434;BME280;1730;41.932;25.548;2024-02-23T09:45:00;98933.28;;;14.28;100.00
3434;BME280;1730;41.932;25.548;2024-02-23T09:47:27;99038.31;;;15.07;100.00
3434;BME280;1730;41.932;25.548;2024-02-23T09:49:56;99006.31;;;15.03;100.00
3434;BME280;1730;41.932;25.548;2024-02-23T09:52:22;99039.75;;;15.75;100.00
3434;BME280;1730;41.932;25.548;2024-02-23T09:54:48;99014.50;;;15.45;100.00
3434;BME280;1730;41.932;25.548;2024-02-23T09:57:16;99049.13;;;15.94;100.00
3434;BME280;1730;41.932;25.548;2024-02-23T09:59:42;99026.72;;;15.92;100.00
3434;BME280;1730;41.932;25.548;2024-02-23T10:02:09;99013.22;;;16.33;100.00
3434;BME280;1730;41.932;25.548;2024-02-23T10:04:36;98875.56;;;16.04;100.00
3434;BME280;1730;41.932;25.548;2024-02-23T10:07:06;98894.41;;;16.05;100.00
3434;BME280;1730;41.932;25.548;2024-02-23T10:09:31;98907.12;;;15.70;100.00
3434;BME280;1730;41.932;25.548;2024-02-23T10:11:57;98994.75;;;16.21;100.00
3434;BME280;1730;41.932;25.548;2024-02-23T10:14:22;98881.19;;;16.02;100.00
3434;BME280;1730;41.932;25.548;2024-02-23T10:16:49;98969.75;;;17.34;100.00
3434;BME280;1730;41.932;25.548;2024-02-23T10:19:19;98880.84;;;16.53;100.00
3434;BME280;1730;41.932;25.548;2024-02-23T10:21:46;98979.78;;;17.14;100.00
3434;BME280;1730;41.932;25.548;2024-02-23T10:24:11;98955.38;;;17.67;100.00
3434;BME280;1730;41.932;25.548;2024-02-23T10:26:37;98818.41;;;15.97;100.00
3434;BME280;1730;41.932;25.548;2024-02-23T10:29:04;98865.69;;;16.91;100.00
3434;BME280;1730;41.932;25.548;2024-02-23T10:31:34;98945.31;;;17.74;100.00
3434;BME280;1730;41.932;25.548;2024-02-23T10:34:08;98941.87;;;17.39;100.00
3434;BME280;1730;41.932;25.548;2024-02-23T10:36:41;98949.31;;;17.97;100.00
3434;BME280;1730;41.932;25.548;2024-02-23T10:39:11;98931.25;;;17.70;100.00
3434;BME280;1730;41.932;25.548;2024-02-23T10:41:49;98921.34;;;18.09;100.00
3434;BME280;1730;41.932;25.548;2024-02-23T10:44:18;98929.97;;;18.06;100.00
3434;BME280;1730;41.932;25.548;2024-02-23T10:46:45;98914.59;;;18.31;100.00
3434;BME280;1730;41.932;25.548;2024-02-23T10:49:11;98909.47;;;18.67;100.00
3434;BME280;1730;41.932;25.548;2024-02-23T10:51:39;98649.09;;;16.89;100.00
3434;BME280;1730;41.932;25.548;2024-02-23T10:54:06;98895.63;;;18.69;100.00
3434;BME280;1730;41.932;25.548;2024-02-23T10:56:31;98866.97;;;18.14;100.00
3434;BME280;1730;41.932;25.548;2024-02-23T10:58:57;98529.09;;;16.24;100.00
3434;BME280;1730;41.932;25.548;2024-02-23T11:01:25;98889.03;;;18.19;100.00
3434;BME280;1730;41.932;25.548;2024-02-23T11:03:51;98774.44;;;18.06;100.00
3434;BME280;1730;41.932;25.548;2024-02-23T11:06:19;98908.63;;;18.73;100.00
3434;BME280;1730;41.932;25.548;2024-02-23T11:08:47;98621.22;;;17.64;100.00
3434;BME280;1730;41.932;25.548;2024-02-23T11:11:15;98862.44;;;19.84;100.00
3434;BME280;1730;41.932;25.548;2024-02-23T11:13:45;98628.25;;;18.54;100.00
3434;BME280;1730;41.932;25.548;2024-02-23T11:16:21;98857.56;;;20.29;100.00
3434;BME280;1730;41.932;25.548;2024-02-23T11:18:47;98885.31;;;20.87;100.00
3434;BME280;1730;41.932;25.548;2024-02-23T11:21:13;98717.66;;;19.64;100.00
3434;BME280;1730;41.932;25.548;2024-02-23T11:23:43;98605.53;;;19.03;100.00
3434;BME280;1730;41.932;25.548;2024-02-23T11:26:10;98837.56;;;20.65;100.00
3434;BME280;1730;41.932;25.548;2024-02-23T11:28:47;98843.91;;;20.77;100.00
3434;BME280;1730;41.932;25.548;2024-02-23T11:31:14;98831.09;;;20.41;100.00
3434;BME280;1730;41.932;25.548;2024-02-23T11:33:47;98724.72;;;19.72;100.00
3434;BME280;1730;41.932;25.548;2024-02-23T11:36:12;98753.06;;;20.14;100.00
3434;BME280;1730;41.932;25.548;2024-02-23T11:38:47;98665.44;;;19.48;100.00
3434;BME280;1730;41.932;25.548;2024-02-23T11:41:14;98803.53;;;20.54;100.00
3434;BME280;1730;41.932;25.548;2024-02-23T11:43:41;98815.09;;;20.20;100.00
3434;BME280;1730;41.932;25.548;2024-02-23T11:46:07;98811.78;;;20.00;100.00
3434;BME280;1730;41.932;25.548;2024-02-23T11:48:32;98611.72;;;18.92;100.00
3434;BME280;1730;41.932;25.548;2024-02-23T11:50:58;98807.97;;;20.01;100.00
3434;BME280;1730;41.932;25.548;2024-02-23T11:53:24;98795.41;;;20.48;100.00
3434;BME280;1730;41.932;25.548;2024-02-23T11:55:52;98579.12;;;19.15;100.00
3434;BME280;1730;41.932;25.548;2024-02-23T11:58:19;98545.09;;;18.93;100.00
3434;BME280;1730;41.932;25.548;2024-02-23T12:00:44;98801.41;;;21.16;100.00
3434;BME280;1730;41.932;25.548;2024-02-23T12:03:11;98653.88;;;19.82;100.00
3434;BME280;1730;41.932;25.548;2024-02-23T12:05:36;98761.03;;;19.79;100.00
3434;BME280;1730;41.932;25.548;2024-02-23T12:08:02;98793.84;;;20.70;100.00
3434;BME280;1730;41.932;25.548;2024-02-23T12:10:28;98576.78;;;19.55;100.00
3434;BME280;1730;41.932;25.548;2024-02-23T12:12:54;98780.41;;;21.10;100.00
3434;BME280;1730;41.932;25.548;2024-02-23T12:15:21;98539.78;;;19.16;100.00
3434;BME280;1730;41.932;25.548;2024-02-23T12:17:49;98778.41;;;21.29;100.00
3434;BME280;1730;41.932;25.548;2024-02-23T12:20:15;98663.53;;;20.74;97.45
3434;BME280;1730;41.932;25.548;2024-02-23T12:22:42;98631.03;;;20.36;98.74
3434;BME280;1730;41.932;25.548;2024-02-23T12:25:09;98780.47;;;20.62;100.00
3434;BME280;1730;41.932;25.548;2024-02-23T12:27:35;98775.34;;;21.37;89.72
3434;BME280;1730;41.932;25.548;2024-02-23T12:30:00;98770.09;;;21.70;82.17
3434;BME280;1730;41.932;25.548;2024-02-23T12:32:26;98403.72;;;19.18;88.09
3434;BME280;1730;41.932;25.548;2024-02-23T12:34:55;98678.12;;;21.21;92.56
3434;BME280;1730;41.932;25.548;2024-02-23T12:37:21;98772.84;;;22.05;93.06
3434;BME280;1730;41.932;25.548;2024-02-23T12:39:49;98770.94;;;22.06;75.67
3434;BME280;1730;41.932;25.548;2024-02-23T12:42:15;98771.19;;;21.04;87.40
3434;BME280;1730;41.932;25.548;2024-02-23T12:44:41;98763.06;;;21.28;94.70
3434;BME280;1730;41.932;25.548;2024-02-23T12:47:08;98770.66;;;21.26;97.42
3434;BME280;1730;41.932;25.548;2024-02-23T12:49:34;98517.69;;;19.96;94.92
3434;BME280;1730;41.932;25.548;2024-02-23T12:52:00;98764.41;;;21.07;96.97
3434;BME280;1730;41.932;25.548;2024-02-23T12:54:26;98731.19;;;21.27;97.50
3434;BME280;1730;41.932;25.548;2024-02-23T12:57:11;98715.09;;;21.19;94.79
3434;BME280;1730;41.932;25.548;2024-02-23T13:00:06;98769.97;;;21.88;93.53
3434;BME280;1730;41.932;25.548;2024-02-23T13:02:48;98778.22;;;21.65;90.11